Time;durP1;ratioP1;P1;durP2;ratioP2;P2;SDS_P1;SDS_P2;PMS_P1;PMS_P2;Temp;Humidity;BMP_temperature;BMP_pressure;BME280_temperature;BME280_humidity;BME280_pressure;Samples;Min_cycle;Max_cycle;Signal;HPM_P1;HPM_P2
2021/12/21 00:00:33;;;;;;;17.27;11.90;;;-1.80;99.90;;;;;;4939736;28;20393;-48
2021/12/21 00:02:59;;;;;;;15.38;12.20;;;-1.80;99.90;;;;;;4945872;28;20043;-47
2021/12/21 00:05:29;;;;;;;17.75;11.52;;;-1.80;99.90;;;;;;4931193;29;20067;-47
2021/12/21 00:08:00;;;;;;;14.50;11.18;;;-1.80;99.90;;;;;;4922871;29;20681;-47
2021/12/21 00:10:29;;;;;;;17.83;12.43;;;-1.80;99.90;;;;;;4920564;29;20044;-47
2021/12/21 00:15:34;;;;;;;20.45;13.63;;;-1.80;99.90;;;;;;4922324;29;20149;-48
2021/12/21 00:18:07;;;;;;;29.02;15.70;;;-1.80;99.90;;;;;;4926049;29;20188;-47
2021/12/21 00:26:03;;;;;;;23.17;15.32;;;-1.90;99.90;;;;;;4925864;29;20135;-47
2021/12/21 00:28:35;;;;;;;24.75;15.90;;;-1.90;99.90;;;;;;4925322;29;20514;-53
2021/12/21 00:31:01;;;;;;;23.27;14.48;;;-1.90;99.90;;;;;;4925740;29;20052;-46
2021/12/21 00:33:26;;;;;;;20.60;13.57;;;-1.90;99.90;;;;;;4924284;29;20062;-46
2021/12/21 00:35:52;;;;;;;20.52;13.82;;;-2.00;99.90;;;;;;4925276;29;20141;-48
2021/12/21 00:38:18;;;;;;;20.65;14.00;;;-2.00;99.90;;;;;;4926912;29;20439;-48
2021/12/21 00:40:43;;;;;;;14.82;11.35;;;-2.00;99.90;;;;;;4920949;29;20066;-46
2021/12/21 00:43:09;;;;;;;17.80;12.32;;;-2.00;99.90;;;;;;4925190;29;20063;-47
2021/12/21 00:45:35;;;;;;;19.77;11.88;;;-2.00;99.90;;;;;;4925600;29;20051;-46
2021/12/21 00:48:01;;;;;;;16.80;11.05;;;-2.10;99.90;;;;;;4921975;29;20058;-47
2021/12/21 00:50:28;;;;;;;21.42;11.93;;;-2.00;99.90;;;;;;4923263;29;20155;-47
2021/12/21 00:52:54;;;;;;;19.60;12.48;;;-2.00;99.90;;;;;;4922521;29;20530;-47
2021/12/21 00:55:21;;;;;;;21.40;13.02;;;-2.00;99.90;;;;;;4922838;29;20052;-48
2021/12/21 00:57:50;;;;;;;20.83;12.73;;;-2.10;99.90;;;;;;4924702;29;20052;-47
2021/12/21 01:00:21;;;;;;;19.27;11.73;;;-2.10;99.90;;;;;;4923108;29;20747;-50
2021/12/21 01:02:47;;;;;;;18.42;12.15;;;-2.10;99.90;;;;;;4927778;29;20487;-49
2021/12/21 01:05:33;;;;;;;16.73;11.10;;;-2.10;99.90;;;;;;4925818;29;20059;-47
2021/12/21 01:08:02;;;;;;;17.65;11.73;;;-2.10;99.90;;;;;;4905253;29;20071;-47
2021/12/21 01:13:30;;;;;;;18.23;11.35;;;-2.10;99.90;;;;;;4945088;29;20063;-47
2021/12/21 01:18:22;;;;;;;19.88;12.75;;;-2.10;99.90;;;;;;4945438;29;20063;-47
2021/12/21 01:21:35;;;;;;;14.95;11.23;;;-2.20;99.90;;;;;;4945027;29;20556;-47
2021/12/21 01:34:12;;;;;;;19.98;12.48;;;-2.20;99.90;;;;;;4865426;29;20574;-46
2021/12/21 01:36:48;;;;;;;17.08;12.13;;;-2.20;99.90;;;;;;4869611;29;20527;-46
2021/12/21 01:41:53;;;;;;;20.88;12.07;;;-2.30;99.90;;;;;;4848651;29;20060;-47
2021/12/21 01:49:51;;;;;;;29.13;15.95;;;-2.30;99.90;;;;;;4866403;29;20082;-47
2021/12/21 01:52:22;;;;;;;33.20;16.92;;;-2.30;99.90;;;;;;4870060;29;20061;-49
2021/12/21 01:54:48;;;;;;;37.10;16.67;;;-2.40;99.90;;;;;;4870999;29;20065;-48
2021/12/21 01:57:15;;;;;;;30.85;14.13;;;-2.40;99.90;;;;;;4866037;29;20484;-47
2021/12/21 01:59:42;;;;;;;26.02;13.77;;;-2.40;99.90;;;;;;4866328;29;20142;-47
2021/12/21 02:02:09;;;;;;;22.98;13.30;;;-2.40;99.90;;;;;;4849802;29;20152;-48
2021/12/21 02:04:37;;;;;;;19.35;11.18;;;-2.50;99.90;;;;;;4865415;29;20145;-47
2021/12/21 02:07:04;;;;;;;20.20;12.15;;;-2.50;99.90;;;;;;4873231;29;20099;-47
2021/12/21 02:09:37;;;;;;;16.67;10.55;;;-2.50;99.90;;;;;;4929612;28;20058;-51
2021/12/21 02:12:15;;;;;;;18.25;12.40;;;-2.50;99.90;;;;;;4943659;28;20059;-47
2021/12/21 02:14:52;;;;;;;18.40;10.90;;;-2.50;99.90;;;;;;4926044;29;20158;-47
2021/12/21 02:22:45;;;;;;;19.58;11.55;;;-2.50;99.90;;;;;;4939161;28;20059;-47
2021/12/21 02:27:55;;;;;;;20.48;11.95;;;-2.50;99.90;;;;;;4942820;28;20320;-47
2021/12/21 02:30:21;;;;;;;20.55;12.20;;;-2.50;99.90;;;;;;4938463;28;20062;-46
2021/12/21 02:32:47;;;;;;;22.05;13.10;;;-2.50;99.90;;;;;;4924366;29;20043;-51
2021/12/21 02:35:13;;;;;;;21.05;13.32;;;-2.50;99.90;;;;;;4943104;28;20130;-47
2021/12/21 02:37:38;;;;;;;20.63;12.60;;;-2.50;99.90;;;;;;4943207;28;20561;-47
2021/12/21 02:40:06;;;;;;;24.23;13.90;;;-2.60;99.90;;;;;;4943203;28;20059;-47
2021/12/21 02:42:31;;;;;;;23.30;13.40;;;-2.60;99.90;;;;;;4938164;28;20391;-47
2021/12/21 02:44:57;;;;;;;19.10;13.20;;;-2.60;99.90;;;;;;4908196;29;20063;-47
2021/12/21 02:47:23;;;;;;;21.48;13.18;;;-2.60;99.90;;;;;;4935650;28;20087;-47
2021/12/21 02:49:49;;;;;;;19.15;12.63;;;-2.60;99.90;;;;;;4942764;29;20094;-48
2021/12/21 02:52:15;;;;;;;19.75;11.73;;;-2.60;99.90;;;;;;4941908;28;20055;-48
2021/12/21 02:54:41;;;;;;;18.75;11.95;;;-2.60;99.90;;;;;;4925612;29;20513;-47
2021/12/21 02:57:07;;;;;;;15.70;11.35;;;-2.60;99.90;;;;;;4944068;29;20158;-47
2021/12/21 02:59:33;;;;;;;16.67;9.40;;;-2.60;99.90;;;;;;4943587;29;20058;-49
2021/12/21 03:01:58;;;;;;;16.38;10.50;;;-2.60;99.90;;;;;;4925171;29;20081;-48
2021/12/21 03:04:25;;;;;;;13.73;9.75;;;-2.70;99.90;;;;;;4942986;29;20427;-46
2021/12/21 03:11:56;;;;;;;16.05;10.30;;;-2.70;99.90;;;;;;4929593;29;20426;-49
2021/12/21 03:14:25;;;;;;;20.65;11.27;;;-2.70;99.90;;;;;;4910973;29;20058;-50
2021/12/21 03:16:53;;;;;;;19.95;12.13;;;-2.70;99.90;;;;;;4943579;29;20113;-50
2021/12/21 03:19:19;;;;;;;19.08;11.23;;;-2.70;99.90;;;;;;4926650;29;20058;-47
2021/12/21 03:21:45;;;;;;;20.83;11.82;;;-2.70;99.90;;;;;;4907101;29;20067;-48
2021/12/21 03:24:11;;;;;;;19.20;12.63;;;-2.70;99.90;;;;;;4942667;29;20051;-47
2021/12/21 03:26:37;;;;;;;21.00;12.63;;;-2.70;99.90;;;;;;4944749;28;20047;-48
2021/12/21 03:29:05;;;;;;;17.88;11.77;;;-2.70;99.90;;;;;;4947071;29;20058;-47
2021/12/21 03:31:32;;;;;;;15.93;11.90;;;-2.80;99.90;;;;;;4945454;29;20047;-47
2021/12/21 03:33:58;;;;;;;13.77;9.88;;;-2.70;99.90;;;;;;4946031;28;20080;-47
2021/12/21 03:36:24;;;;;;;18.10;11.52;;;-2.80;99.90;;;;;;4941338;29;20514;-47
2021/12/21 03:41:30;;;;;;;16.73;10.98;;;-2.80;99.90;;;;;;4945936;29;20086;-46
2021/12/21 03:43:59;;;;;;;18.05;11.68;;;-2.80;99.90;;;;;;4946771;28;20058;-46
2021/12/21 03:46:25;;;;;;;16.95;11.63;;;-2.80;99.90;;;;;;4942112;28;20066;-47
2021/12/21 03:48:51;;;;;;;20.75;11.65;;;-2.80;99.90;;;;;;4945286;29;20055;-47
2021/12/21 03:51:19;;;;;;;21.80;12.45;;;-2.80;99.90;;;;;;4927870;29;20059;-47
2021/12/21 03:53:47;;;;;;;18.15;13.10;;;-2.80;99.90;;;;;;4946282;29;20066;-48
2021/12/21 03:58:42;;;;;;;21.25;12.00;;;-2.90;99.90;;;;;;4945657;29;20055;-47
2021/12/21 04:01:08;;;;;;;16.35;11.52;;;-2.90;99.90;;;;;;4924622;29;20359;-48
2021/12/21 04:03:34;;;;;;;19.00;13.00;;;-2.90;99.90;;;;;;4927363;29;20091;-48
2021/12/21 04:06:00;;;;;;;21.90;11.38;;;-2.90;99.90;;;;;;4946781;29;20131;-48
2021/12/21 04:08:26;;;;;;;22.58;11.13;;;-2.90;99.90;;;;;;4945617;29;20078;-47
2021/12/21 04:10:54;;;;;;;16.88;10.88;;;-2.90;99.90;;;;;;4945731;29;20502;-47
2021/12/21 04:13:20;;;;;;;16.17;10.30;;;-2.90;99.90;;;;;;4946267;29;20066;-47
2021/12/21 04:15:53;;;;;;;17.58;10.77;;;-2.90;99.90;;;;;;4948399;29;20050;-47
2021/12/21 04:18:20;;;;;;;14.95;10.20;;;-2.90;99.90;;;;;;4947653;29;20371;-50
2021/12/21 04:20:46;;;;;;;14.07;9.32;;;-3.00;99.90;;;;;;4928110;29;20055;-47
2021/12/21 04:23:12;;;;;;;15.65;9.65;;;-3.00;99.90;;;;;;4945832;29;20058;-47
2021/12/21 04:25:38;;;;;;;15.15;10.02;;;-3.00;99.90;;;;;;4945555;29;20047;-47
2021/12/21 04:28:04;;;;;;;16.25;10.55;;;-3.00;99.90;;;;;;4945840;29;20374;-47
2021/12/21 04:30:29;;;;;;;16.08;9.95;;;-3.10;99.90;;;;;;4906886;29;20601;-47
2021/12/21 04:32:56;;;;;;;19.27;9.57;;;-3.10;99.90;;;;;;4942674;29;20043;-46
2021/12/21 04:35:22;;;;;;;17.13;9.93;;;-3.10;99.90;;;;;;4949657;28;20562;-47
2021/12/21 04:37:59;;;;;;;16.20;10.70;;;-3.10;99.90;;;;;;4941701;28;20118;-47
2021/12/21 04:40:38;;;;;;;17.48;10.70;;;-3.10;99.90;;;;;;4927306;29;20158;-47
2021/12/21 04:43:05;;;;;;;15.00;9.82;;;-3.10;99.90;;;;;;4945652;29;20086;-47
2021/12/21 04:45:31;;;;;;;17.60;10.77;;;-3.10;99.90;;;;;;4927223;29;20506;-47
2021/12/21 04:47:56;;;;;;;20.40;11.35;;;-3.10;99.90;;;;;;4941180;28;20562;-48
2021/12/21 04:50:22;;;;;;;20.13;12.68;;;-3.10;99.90;;;;;;4944494;29;20043;-47
2021/12/21 04:52:48;;;;;;;19.02;10.70;;;-3.10;99.90;;;;;;4944478;29;20303;-47
2021/12/21 04:55:14;;;;;;;15.75;9.60;;;-3.10;99.90;;;;;;4944216;29;20055;-47
2021/12/21 04:57:43;;;;;;;19.75;10.75;;;-3.10;99.90;;;;;;4924039;29;20336;-48
2021/12/21 05:00:12;;;;;;;17.35;10.43;;;-3.20;99.90;;;;;;4944149;28;20054;-47
2021/12/21 05:02:38;;;;;;;16.80;10.75;;;-3.20;99.90;;;;;;4942177;29;20094;-47
2021/12/21 05:05:05;;;;;;;18.17;11.25;;;-3.20;99.90;;;;;;4924549;29;20139;-47
2021/12/21 05:07:34;;;;;;;18.42;10.70;;;-3.10;99.90;;;;;;4945386;29;20043;-48
2021/12/21 05:10:02;;;;;;;17.30;9.18;;;-3.20;99.90;;;;;;4944600;29;20051;-47
2021/12/21 05:12:28;;;;;;;15.70;9.35;;;-3.20;99.90;;;;;;4944515;28;20421;-48
2021/12/21 05:14:55;;;;;;;18.27;10.00;;;-3.20;99.90;;;;;;4944251;29;20369;-47
2021/12/21 05:17:21;;;;;;;17.45;10.18;;;-3.20;99.90;;;;;;4943893;29;20822;-49
2021/12/21 05:19:47;;;;;;;15.57;9.88;;;-3.20;99.90;;;;;;4941423;29;20047;-49
2021/12/21 05:22:12;;;;;;;14.23;9.43;;;-3.20;99.90;;;;;;4946787;28;20062;-51
2021/12/21 05:24:39;;;;;;;16.23;9.65;;;-3.20;99.90;;;;;;4924179;29;20059;-51
2021/12/21 05:27:05;;;;;;;16.27;9.23;;;-3.20;99.90;;;;;;4943796;29;20055;-49
2021/12/21 05:29:32;;;;;;;17.40;9.25;;;-3.20;99.90;;;;;;4944468;29;20150;-47
2021/12/21 05:31:59;;;;;;;17.20;8.90;;;-3.30;99.90;;;;;;4926209;29;20071;-47
2021/12/21 05:34:26;;;;;;;15.00;9.10;;;-3.30;99.90;;;;;;4948677;28;20059;-48
2021/12/21 05:36:52;;;;;;;13.35;8.93;;;-3.30;99.90;;;;;;4943317;29;20496;-50
2021/12/21 05:39:22;;;;;;;14.52;9.18;;;-3.30;99.90;;;;;;4926212;29;20134;-47
2021/12/21 05:41:54;;;;;;;22.85;10.25;;;-3.30;99.90;;;;;;4913782;29;20134;-47
2021/12/21 05:44:22;;;;;;;15.88;9.35;;;-3.30;99.90;;;;;;4923431;29;20569;-47
2021/12/21 05:46:50;;;;;;;18.52;9.18;;;-3.30;99.90;;;;;;4939339;28;20600;-46
2021/12/21 05:49:16;;;;;;;13.90;8.57;;;-3.30;99.90;;;;;;4944237;28;20137;-48
2021/12/21 05:51:42;;;;;;;17.25;8.82;;;-3.40;99.90;;;;;;4943914;29;20051;-47
2021/12/21 05:54:08;;;;;;;15.35;10.40;;;-3.40;99.90;;;;;;4925448;29;20055;-47
2021/12/21 05:56:34;;;;;;;18.50;9.98;;;-3.40;99.90;;;;;;4943245;28;20074;-48
2021/12/21 05:59:02;;;;;;;15.43;9.25;;;-3.40;99.90;;;;;;4943902;29;20129;-47
2021/12/21 06:01:29;;;;;;;12.98;8.77;;;-3.40;99.90;;;;;;4910608;29;20106;-49
2021/12/21 06:03:55;;;;;;;18.50;9.90;;;-3.40;99.90;;;;;;4944351;29;20130;-47
2021/12/21 06:06:21;;;;;;;15.10;9.15;;;-3.30;99.90;;;;;;4951160;28;20049;-50
2021/12/21 06:08:48;;;;;;;17.38;9.75;;;-3.40;99.90;;;;;;4926700;28;20090;-49
2021/12/21 06:11:15;;;;;;;15.75;8.95;;;-3.40;99.90;;;;;;4925327;29;20047;-47
2021/12/21 06:27:09;;;;;;;12.48;8.68;;;-3.40;99.90;;;;;;4871779;29;20103;-51
2021/12/21 06:29:35;;;;;;;12.73;8.93;;;-3.40;99.90;;;;;;4885060;29;20057;-47
2021/12/21 06:32:02;;;;;;;16.85;9.27;;;-3.40;99.90;;;;;;4885105;29;20048;-47
2021/12/21 06:34:28;;;;;;;16.70;9.73;;;-3.40;99.90;;;;;;4887977;29;20055;-47
2021/12/21 06:36:54;;;;;;;15.80;9.02;;;-3.40;99.90;;;;;;4868343;29;20142;-47
2021/12/21 06:39:20;;;;;;;14.55;9.10;;;-3.40;99.90;;;;;;4883593;29;20103;-47
2021/12/21 06:41:46;;;;;;;17.58;9.63;;;-3.40;99.90;;;;;;4883880;29;20049;-46
2021/12/21 06:44:14;;;;;;;13.38;9.40;;;-3.40;99.90;;;;;;4867891;29;20163;-47
2021/12/21 06:51:58;;;;;;;14.93;9.02;;;-3.40;99.90;;;;;;4885903;29;20060;-48
2021/12/21 06:54:25;;;;;;;12.98;8.48;;;-3.50;99.90;;;;;;4867631;29;20056;-48
2021/12/21 06:56:51;;;;;;;12.70;8.60;;;-3.50;99.90;;;;;;4931327;28;20368;-49
2021/12/21 06:59:17;;;;;;;17.15;10.07;;;-3.50;99.90;;;;;;4943267;28;20677;-47
2021/12/21 07:01:42;;;;;;;15.55;8.52;;;-3.60;99.90;;;;;;4942847;28;20577;-47
2021/12/21 07:04:17;;;;;;;14.80;9.65;;;-3.60;99.90;;;;;;4947701;28;20043;-48
2021/12/21 07:06:45;;;;;;;17.63;9.18;;;-3.60;99.90;;;;;;4947027;28;20055;-47
2021/12/21 07:09:19;;;;;;;16.58;10.15;;;-3.60;99.90;;;;;;4946320;28;20047;-48
2021/12/21 07:11:50;;;;;;;17.85;10.20;;;-3.60;99.90;;;;;;4927245;29;20058;-47
2021/12/21 07:19:45;;;;;;;17.13;10.68;;;-3.60;99.90;;;;;;4948137;29;20148;-47
2021/12/21 07:22:12;;;;;;;17.80;10.70;;;-3.60;99.90;;;;;;4946586;28;20747;-47
2021/12/21 07:24:38;;;;;;;14.55;10.80;;;-3.60;99.90;;;;;;4929384;29;20048;-47
2021/12/21 07:27:04;;;;;;;23.75;12.13;;;-3.60;99.90;;;;;;4930622;29;20078;-49
2021/12/21 07:29:30;;;;;;;18.83;10.65;;;-3.60;99.90;;;;;;4950397;28;20051;-47
2021/12/21 07:31:56;;;;;;;20.77;11.75;;;-3.60;99.90;;;;;;4947455;28;20058;-53
2021/12/21 07:34:21;;;;;;;23.02;11.75;;;-3.60;99.90;;;;;;4935084;28;20059;-47
2021/12/21 07:36:47;;;;;;;17.60;11.77;;;-3.60;99.90;;;;;;4946888;28;20087;-48
2021/12/21 07:39:17;;;;;;;21.20;11.27;;;-3.60;99.90;;;;;;4946697;29;20050;-47
2021/12/21 07:41:48;;;;;;;16.55;11.85;;;-3.60;99.90;;;;;;4948435;29;20691;-46
2021/12/21 07:44:14;;;;;;;15.57;9.88;;;-3.60;99.90;;;;;;4947306;29;20134;-47
2021/12/21 07:46:42;;;;;;;17.55;11.45;;;-3.60;99.90;;;;;;4941295;28;20106;-47
2021/12/21 07:49:09;;;;;;;16.45;10.60;;;-3.50;99.90;;;;;;4932009;29;20055;-47
2021/12/21 07:51:38;;;;;;;16.30;11.77;;;-3.50;99.90;;;;;;4937604;29;20573;-49
2021/12/21 07:54:04;;;;;;;19.15;11.85;;;-3.50;99.90;;;;;;4933658;29;20051;-46
2021/12/21 07:56:32;;;;;;;17.33;11.07;;;-3.50;99.90;;;;;;4949866;29;20051;-48
2021/12/21 07:58:58;;;;;;;21.48;10.95;;;-3.50;99.90;;;;;;4946105;28;20049;-47
2021/12/21 08:01:24;;;;;;;16.77;10.65;;;-3.50;99.90;;;;;;4949453;28;20058;-47
2021/12/21 08:04:00;;;;;;;16.75;10.20;;;-3.50;99.90;;;;;;4930081;28;20335;-47
2021/12/21 08:06:31;;;;;;;17.02;10.02;;;-3.50;99.90;;;;;;4927925;29;20496;-47
2021/12/21 08:09:47;;;;;;;16.17;9.60;;;-3.50;99.90;;;;;;4946247;28;20047;-49
2021/12/21 08:12:19;;;;;;;16.73;9.48;;;-3.50;99.90;;;;;;4946312;28;20059;-46
2021/12/21 08:14:47;;;;;;;18.05;9.88;;;-3.50;99.90;;;;;;4947540;28;20568;-48
2021/12/21 08:17:14;;;;;;;15.68;11.10;;;-3.50;99.90;;;;;;4946543;28;20098;-47
2021/12/21 08:19:40;;;;;;;11.90;9.38;;;-3.50;99.90;;;;;;4953336;29;20054;-50
2021/12/21 08:22:15;;;;;;;18.73;11.00;;;-3.50;99.90;;;;;;4951465;28;20043;-48
2021/12/21 08:24:43;;;;;;;17.10;10.00;;;-3.50;99.90;;;;;;4947091;28;20039;-49
2021/12/21 08:27:39;;;;;;;17.38;11.90;;;-3.40;99.90;;;;;;4943874;28;20063;-48
2021/12/21 08:30:06;;;;;;;19.80;11.15;;;-3.40;99.90;;;;;;4942471;28;20047;-47
2021/12/21 08:32:33;;;;;;;15.88;11.25;;;-3.40;99.90;;;;;;4949057;28;20058;-48
2021/12/21 08:35:12;;;;;;;17.02;11.95;;;-3.40;99.90;;;;;;4931096;28;20832;-50
2021/12/21 08:37:38;;;;;;;17.83;11.48;;;-3.40;99.90;;;;;;4949529;28;20430;-47
2021/12/21 08:40:07;;;;;;;17.30;12.32;;;-3.40;99.90;;;;;;4950449;28;20154;-47
2021/12/21 08:42:39;;;;;;;25.48;14.68;;;-3.30;99.90;;;;;;4930426;29;20051;-48
2021/12/21 08:45:06;;;;;;;29.48;16.45;;;-3.30;99.90;;;;;;4948220;28;20135;-47
2021/12/21 08:47:33;;;;;;;25.48;15.38;;;-3.20;99.90;;;;;;4942893;28;20450;-47
2021/12/21 08:49:59;;;;;;;27.58;18.13;;;-3.10;99.90;;;;;;4946688;29;20058;-47
2021/12/21 08:52:25;;;;;;;30.42;17.92;;;-3.10;99.90;;;;;;4936123;28;20040;-49
2021/12/21 08:54:50;;;;;;;30.17;18.00;;;-3.00;99.90;;;;;;4930733;29;20050;-47
2021/12/21 08:57:16;;;;;;;30.58;20.77;;;-2.90;99.90;;;;;;4915752;29;20079;-50
2021/12/21 08:59:45;;;;;;;28.60;18.98;;;-2.80;99.90;;;;;;4945386;29;20087;-47
2021/12/21 09:02:11;;;;;;;27.83;18.50;;;-2.70;99.90;;;;;;4942668;29;20138;-51
2021/12/21 09:04:37;;;;;;;29.30;17.33;;;-2.70;99.90;;;;;;4927178;29;20054;-47
2021/12/21 09:07:03;;;;;;;24.15;16.67;;;-2.70;99.90;;;;;;4925172;29;20518;-48
2021/12/21 09:09:30;;;;;;;32.67;17.52;;;-2.70;99.90;;;;;;4922279;29;20087;-47
2021/12/21 09:11:59;;;;;;;27.48;17.83;;;-2.60;99.90;;;;;;4944241;29;20142;-47
2021/12/21 09:14:27;;;;;;;27.13;18.90;;;-2.50;99.90;;;;;;4950167;29;20062;-47
2021/12/21 09:16:52;;;;;;;27.60;17.63;;;-2.50;99.90;;;;;;4931635;29;20477;-48
2021/12/21 09:19:18;;;;;;;30.77;20.42;;;-2.40;99.90;;;;;;4917405;29;20051;-47
2021/12/21 09:21:44;;;;;;;35.00;21.60;;;-2.40;99.90;;;;;;4943244;28;20133;-47
2021/12/21 09:24:10;;;;;;;27.48;20.13;;;-2.30;99.90;;;;;;4928333;29;20061;-47
2021/12/21 09:26:36;;;;;;;34.42;21.67;;;-2.20;99.90;;;;;;4943936;29;20071;-47
2021/12/21 09:29:05;;;;;;;28.88;19.67;;;-2.20;99.90;;;;;;4947671;29;20082;-51
2021/12/21 09:31:31;;;;;;;29.45;20.45;;;-2.10;99.90;;;;;;4944109;29;20086;-48
2021/12/21 09:33:57;;;;;;;29.83;20.88;;;-2.10;99.90;;;;;;4949805;29;20143;-47
2021/12/21 09:36:55;;;;;;;34.42;23.52;;;-2.10;99.90;;;;;;4946674;29;20490;-48
2021/12/21 09:39:36;;;;;;;30.80;22.48;;;-2.00;99.90;;;;;;4927213;29;20518;-49
2021/12/21 09:42:20;;;;;;;31.27;23.20;;;-1.90;99.90;;;;;;4906721;29;20044;-49
2021/12/21 09:44:57;;;;;;;34.92;23.98;;;-1.80;99.90;;;;;;4929909;29;20039;-47
2021/12/21 09:47:27;;;;;;;33.83;22.75;;;-1.80;99.90;;;;;;4930764;29;20051;-48
2021/12/21 09:49:56;;;;;;;34.45;22.90;;;-1.70;99.90;;;;;;4928485;29;20051;-48
2021/12/21 09:52:32;;;;;;;36.25;25.42;;;-1.70;99.90;;;;;;4910978;29;20130;-47
2021/12/21 09:55:00;;;;;;;30.90;22.95;;;-1.60;99.90;;;;;;4929114;29;20060;-48
2021/12/21 09:57:35;;;;;;;37.70;23.77;;;-1.60;99.90;;;;;;4928780;29;20051;-50
2021/12/21 10:00:03;;;;;;;29.13;22.15;;;-1.50;99.90;;;;;;4930196;29;20111;-48
2021/12/21 10:02:29;;;;;;;34.78;24.42;;;-1.50;99.90;;;;;;4927218;29;20051;-48
2021/12/21 10:05:03;;;;;;;38.22;24.45;;;-1.40;99.90;;;;;;4926038;29;20098;-51
2021/12/21 10:07:29;;;;;;;36.58;22.65;;;-1.30;99.90;;;;;;4930291;29;20048;-49
2021/12/21 10:10:41;;;;;;;32.65;22.58;;;-1.30;99.90;;;;;;4931783;29;20406;-47
2021/12/21 10:13:22;;;;;;;32.22;22.67;;;-1.20;99.90;;;;;;4912378;29;20055;-47
2021/12/21 10:15:51;;;;;;;29.80;22.85;;;-1.20;99.90;;;;;;4927820;29;20048;-48
2021/12/21 10:18:47;;;;;;;32.90;23.08;;;-1.10;99.90;;;;;;4927142;29;20288;-48
2021/12/21 10:21:16;;;;;;;28.10;21.73;;;-1.00;99.90;;;;;;4909751;29;20166;-48
2021/12/21 10:23:45;;;;;;;33.33;21.20;;;-1.00;99.90;;;;;;4923445;29;20135;-48
2021/12/21 10:26:23;;;;;;;30.23;21.10;;;-0.90;99.90;;;;;;4922582;29;20495;-49
2021/12/21 10:28:52;;;;;;;30.88;22.63;;;-0.90;99.90;;;;;;4909275;29;20515;-47
2021/12/21 10:31:39;;;;;;;35.13;21.52;;;-0.80;99.90;;;;;;4926938;29;20499;-47
2021/12/21 10:34:11;;;;;;;39.28;22.67;;;-0.80;99.90;;;;;;4925841;29;20108;-49
2021/12/21 10:37:19;;;;;;;31.80;22.77;;;-0.70;99.90;;;;;;4929631;29;20157;-50
2021/12/21 10:39:46;;;;;;;26.85;20.75;;;-0.70;99.90;;;;;;4911998;29;20067;-50
2021/12/21 10:42:17;;;;;;;30.75;20.58;;;-0.60;99.90;;;;;;4943406;29;20471;-50
2021/12/21 10:44:46;;;;;;;26.98;20.52;;;-0.60;99.90;;;;;;4925586;29;20503;-51
2021/12/21 10:47:12;;;;;;;29.35;19.52;;;-0.50;99.90;;;;;;4930089;29;20044;-48
2021/12/21 10:49:39;;;;;;;31.90;20.67;;;-0.50;99.90;;;;;;4908120;29;20555;-47
2021/12/21 10:52:12;;;;;;;32.95;20.70;;;-0.40;99.90;;;;;;4926189;29;20146;-48
2021/12/21 10:54:42;;;;;;;26.55;20.48;;;-0.30;99.90;;;;;;4892437;29;20063;-48
2021/12/21 10:57:10;;;;;;;26.55;20.75;;;-0.30;99.90;;;;;;4906202;29;20055;-49
2021/12/21 10:59:38;;;;;;;31.48;20.77;;;-0.20;99.90;;;;;;4907143;29;20062;-47
2021/12/21 11:02:10;;;;;;;30.25;21.33;;;-0.20;99.90;;;;;;4907617;29;20529;-47
2021/12/21 11:04:41;;;;;;;31.25;22.38;;;-0.10;99.90;;;;;;4924630;29;20146;-47
2021/12/21 11:07:29;;;;;;;29.58;20.40;;;-0.10;99.90;;;;;;4924880;29;20418;-47
2021/12/21 11:10:00;;;;;;;29.77;20.30;;;0.00;99.90;;;;;;4923879;29;20143;-51
2021/12/21 11:12:28;;;;;;;26.98;19.42;;;0.10;99.90;;;;;;4924295;29;20058;-47
2021/12/21 11:14:57;;;;;;;26.33;18.10;;;0.10;99.90;;;;;;4922841;29;20060;-49
2021/12/21 11:17:24;;;;;;;25.55;18.30;;;0.20;99.90;;;;;;4903022;29;20064;-47
2021/12/21 11:19:53;;;;;;;22.48;17.55;;;0.30;99.90;;;;;;4917320;29;20051;-47
2021/12/21 11:22:21;;;;;;;22.85;15.15;;;0.30;99.90;;;;;;4904317;29;20056;-48
2021/12/21 11:24:48;;;;;;;24.45;14.32;;;0.40;99.90;;;;;;4918584;29;20047;-49
2021/12/21 11:27:16;;;;;;;30.95;16.05;;;0.50;99.90;;;;;;4926290;29;20055;-46
2021/12/21 11:29:43;;;;;;;22.55;14.77;;;0.50;99.90;;;;;;4923800;29;20499;-49
2021/12/21 11:32:12;;;;;;;22.08;14.32;;;0.50;99.90;;;;;;4924292;29;20074;-47
2021/12/21 11:34:57;;;;;;;30.35;14.45;;;0.60;99.90;;;;;;4921688;29;20555;-48
2021/12/21 11:37:27;;;;;;;22.33;14.10;;;0.60;99.90;;;;;;4910719;29;20086;-48
2021/12/21 11:39:58;;;;;;;26.52;14.68;;;0.70;99.90;;;;;;4923870;29;20486;-48
2021/12/21 11:42:50;;;;;;;25.25;13.85;;;0.70;99.90;;;;;;4940968;28;20098;-47
2021/12/21 11:45:45;;;;;;;22.35;13.50;;;0.70;99.90;;;;;;4882863;29;20085;-47
2021/12/21 11:48:11;;;;;;;18.90;12.40;;;0.70;99.90;;;;;;4878999;29;20079;-48
2021/12/21 11:50:48;;;;;;;23.65;14.70;;;0.70;99.90;;;;;;4881935;29;20575;-51
2021/12/21 11:53:17;;;;;;;21.25;14.07;;;0.80;99.90;;;;;;4875885;29;20141;-50
2021/12/21 11:55:47;;;;;;;23.33;13.77;;;0.80;99.90;;;;;;4863452;29;20108;-47
2021/12/21 11:58:18;;;;;;;20.35;12.10;;;0.80;99.90;;;;;;4884391;29;20767;-47
2021/12/21 12:01:23;;;;;;;18.20;11.32;;;0.80;99.90;;;;;;4884495;29;20052;-47
2021/12/21 12:04:04;;;;;;;22.50;9.90;;;0.90;99.90;;;;;;4883942;29;20124;-48
2021/12/21 12:06:57;;;;;;;17.95;10.18;;;0.80;99.90;;;;;;4886861;29;20131;-48
2021/12/21 12:09:29;;;;;;;21.85;15.15;;;0.90;99.90;;;;;;4885646;29;20155;-47
2021/12/21 12:12:17;;;;;;;17.88;9.65;;;0.90;99.90;;;;;;4875530;29;20216;-48
2021/12/21 12:14:45;;;;;;;20.92;10.68;;;1.00;99.90;;;;;;4879392;29;20499;-48
2021/12/21 12:17:13;;;;;;;20.02;10.57;;;1.00;99.90;;;;;;4873176;29;20480;-48
2021/12/21 12:19:43;;;;;;;14.98;9.90;;;1.00;99.90;;;;;;4886616;29;20053;-47
2021/12/21 12:22:15;;;;;;;18.92;10.82;;;1.10;99.90;;;;;;4902194;29;20067;-48
2021/12/21 12:24:44;;;;;;;16.08;10.27;;;1.10;99.90;;;;;;4944823;29;20429;-49
2021/12/21 12:27:12;;;;;;;21.92;11.43;;;1.10;99.90;;;;;;4946191;29;20518;-47
2021/12/21 12:29:49;;;;;;;20.13;10.82;;;1.10;99.90;;;;;;4926853;29;20064;-49
2021/12/21 12:32:16;;;;;;;22.65;14.25;;;1.20;99.90;;;;;;4938409;29;20066;-46
2021/12/21 12:34:44;;;;;;;17.42;11.07;;;1.20;99.90;;;;;;4953859;28;20051;-49
2021/12/21 12:37:24;;;;;;;18.88;11.30;;;1.20;99.90;;;;;;4948352;29;20058;-50
2021/12/21 12:39:55;;;;;;;16.05;10.43;;;1.20;99.90;;;;;;4946980;29;20138;-48
2021/12/21 12:42:29;;;;;;;17.77;9.88;;;1.30;99.90;;;;;;4931225;29;20131;-52
2021/12/21 12:45:04;;;;;;;16.33;10.15;;;1.30;99.90;;;;;;4947798;29;20061;-47
2021/12/21 12:47:45;;;;;;;12.30;8.85;;;1.30;99.90;;;;;;4949382;29;20087;-48
2021/12/21 12:50:19;;;;;;;15.95;8.50;;;1.40;99.90;;;;;;4948106;29;20134;-48
2021/12/21 12:53:00;;;;;;;23.25;9.82;;;1.40;99.90;;;;;;4932788;29;20217;-47
2021/12/21 12:55:37;;;;;;;15.20;10.00;;;1.50;99.90;;;;;;4947176;29;20054;-49
2021/12/21 12:58:14;;;;;;;13.43;9.05;;;1.50;99.90;;;;;;4947265;28;20047;-49
2021/12/21 13:00:44;;;;;;;17.20;9.38;;;1.60;99.90;;;;;;4946280;29;20070;-48
2021/12/21 13:03:11;;;;;;;14.45;8.35;;;1.60;99.90;;;;;;4928643;29;20098;-48
2021/12/21 13:05:52;;;;;;;17.58;8.80;;;1.60;99.90;;;;;;4945657;29;20506;-48
2021/12/21 13:08:21;;;;;;;15.60;8.85;;;1.70;99.90;;;;;;4946089;29;20055;-48
2021/12/21 13:10:51;;;;;;;14.18;8.40;;;1.70;99.90;;;;;;4945355;29;20059;-48
2021/12/21 13:13:18;;;;;;;15.68;7.50;;;1.70;99.90;;;;;;4928667;29;20050;-48
2021/12/21 13:15:48;;;;;;;17.10;8.38;;;1.70;99.90;;;;;;4946269;28;20106;-48
2021/12/21 13:18:18;;;;;;;12.48;9.27;;;1.70;99.90;;;;;;4945482;29;20138;-47
2021/12/21 13:20:52;;;;;;;15.70;8.00;;;1.80;99.90;;;;;;4934359;29;20055;-48
2021/12/21 13:23:26;;;;;;;13.75;9.25;;;1.80;99.90;;;;;;4925826;29;20126;-48
2021/12/21 13:26:00;;;;;;;13.45;7.75;;;1.80;99.90;;;;;;4942985;28;20043;-49
2021/12/21 13:28:29;;;;;;;16.88;9.32;;;1.80;99.90;;;;;;4897465;29;20135;-48
2021/12/21 13:30:59;;;;;;;14.40;8.60;;;1.80;99.90;;;;;;4938340;28;20061;-47
2021/12/21 13:33:27;;;;;;;14.73;10.35;;;1.80;99.90;;;;;;4943042;28;20051;-47
2021/12/21 13:35:59;;;;;;;17.88;10.40;;;1.80;99.90;;;;;;4940058;29;20526;-47
2021/12/21 13:38:27;;;;;;;14.20;8.77;;;1.80;99.90;;;;;;4946298;28;20070;-48
2021/12/21 13:41:14;;;;;;;16.52;9.15;;;1.80;99.90;;;;;;4948290;28;20078;-47
2021/12/21 13:43:52;;;;;;;13.15;9.27;;;1.70;99.90;;;;;;4919729;29;20119;-58
2021/12/21 13:46:18;;;;;;;16.23;8.98;;;1.70;99.90;;;;;;4941464;28;20089;-49
2021/12/21 13:48:55;;;;;;;14.13;7.93;;;1.70;99.90;;;;;;4944015;28;20647;-49
2021/12/21 13:51:23;;;;;;;13.95;8.20;;;1.70;99.90;;;;;;4942573;28;20050;-47
2021/12/21 13:53:58;;;;;;;21.85;12.70;;;1.70;99.90;;;;;;4944131;28;20058;-47
2021/12/21 13:56:29;;;;;;;13.73;10.00;;;1.70;99.90;;;;;;4924030;29;20074;-48
2021/12/21 13:58:57;;;;;;;13.00;9.27;;;1.60;99.90;;;;;;4933074;28;20047;-50